Time;durP1;ratioP1;P1;durP2;ratioP2;P2;SDS_P1;SDS_P2;PMS_P1;PMS_P2;Temp;Humidity;BMP_temperature;BMP_pressure;BME280_temperature;BME280_humidity;BME280_pressure;Samples;Min_cycle;Max_cycle;Signal;HPM_P1;HPM_P2
2023/02/14 00:00:20;;;;;;;17.03;12.50;;;;;;;3.88;91.22;102655.38;5037436;28;20288;-79
2023/02/14 00:02:47;;;;;;;13.60;12.30;;;;;;;3.82;91.52;102644.75;5035589;28;20202;-82
2023/02/14 00:05:13;;;;;;;14.63;13.23;;;;;;;3.77;92.23;102639.41;5037130;28;20219;-81
2023/02/14 00:07:40;;;;;;;14.57;13.00;;;;;;;3.74;92.17;102633.22;5037294;28;20209;-79
2023/02/14 00:10:08;;;;;;;14.43;12.30;;;;;;;3.76;92.05;102629.00;5036599;28;20277;-81
2023/02/14 00:12:34;;;;;;;15.80;14.20;;;;;;;3.76;93.30;102603.16;4685538;28;9999939;-81
2023/02/14 00:17:46;;;;;;;15.17;13.57;;;;;;;3.82;93.37;102595.69;5028642;28;20220;-80
2023/02/14 00:20:13;;;;;;;14.60;13.10;;;;;;;3.82;92.96;102594.81;5030040;28;20223;-80
2023/02/14 00:22:39;;;;;;;15.40;13.80;;;;;;;3.86;92.83;102602.75;5027514;28;20206;-80
2023/02/14 00:25:06;;;;;;;16.80;13.70;;;;;;;3.77;93.64;102589.44;5029314;28;20233;-81
2023/02/14 00:27:33;;;;;;;14.37;12.97;;;;;;;3.77;93.58;102574.81;5029554;28;20228;-80
2023/02/14 00:30:01;;;;;;;14.33;12.83;;;;;;;3.83;93.83;102571.63;5028221;28;20208;-80
2023/02/14 00:32:30;;;;;;;14.40;12.97;;;;;;;3.79;93.58;102567.16;5027368;28;20233;-79
2023/02/14 00:34:57;;;;;;;14.93;13.33;;;;;;;3.77;93.29;102582.56;5029494;28;20222;-79
2023/02/14 00:37:23;;;;;;;14.20;12.73;;;;;;;3.80;93.27;102580.94;5028057;28;20217;-79
2023/02/14 00:39:50;;;;;;;14.67;13.27;;;;;;;3.83;92.88;102581.97;5027552;28;20267;-81
2023/02/14 00:42:16;;;;;;;14.00;12.67;;;;;;;3.81;92.89;102588.75;5029232;28;20236;-81
2023/02/14 00:44:43;;;;;;;13.80;12.40;;;;;;;3.77;92.51;102595.50;5030022;28;20674;-81
2023/02/14 00:47:09;;;;;;;13.47;12.07;;;;;;;3.75;93.00;102602.28;5031095;28;20234;-80
2023/02/14 00:49:37;;;;;;;13.27;11.97;;;;;;;3.71;92.69;102607.25;5029730;28;20208;-81
2023/02/14 00:52:03;;;;;;;13.00;11.80;;;;;;;3.68;92.47;102617.44;5027276;28;20225;-79
2023/02/14 00:54:29;;;;;;;13.57;12.27;;;;;;;3.68;92.39;102623.47;5027488;28;20212;-80
2023/02/14 00:56:56;;;;;;;13.67;12.37;;;;;;;3.65;92.11;102625.94;5028622;28;20230;-81
2023/02/14 00:59:22;;;;;;;14.03;12.67;;;;;;;3.62;91.86;102628.38;5027659;28;20202;-82
2023/02/14 01:01:49;;;;;;;11.23;10.17;;;;;;;3.67;92.74;102626.03;5027152;28;20207;-81
2023/02/14 01:04:15;;;;;;;13.03;11.60;;;;;;;3.65;92.03;102630.19;5073334;22;20234;-81
2023/02/14 01:06:43;;;;;;;12.93;11.60;;;;;;;3.60;92.00;102627.44;5037420;28;20275;-82
2023/02/14 01:09:09;;;;;;;12.90;11.60;;;;;;;3.60;92.41;102627.44;5037414;28;20224;-81
2023/02/14 01:11:36;;;;;;;12.60;11.30;;;;;;;3.56;92.20;102626.41;5037423;28;20211;-81
2023/02/14 01:14:02;;;;;;;13.10;11.90;;;;;;;3.52;92.24;102621.03;5038155;28;20716;-80
2023/02/14 01:16:30;;;;;;;12.33;11.13;;;;;;;3.50;92.17;102620.09;5038053;28;20208;-81
2023/02/14 01:18:59;;;;;;;12.27;10.97;;;;;;;3.49;92.82;102615.72;5038060;28;20228;-83
2023/02/14 01:21:27;;;;;;;11.73;10.53;;;;;;;3.48;92.81;102616.53;5038126;28;20206;-82
2023/02/14 01:23:56;;;;;;;11.70;10.60;;;;;;;3.49;92.06;102626.03;5037390;28;20234;-82
2023/02/14 01:26:24;;;;;;;10.77;9.77;;;;;;;3.47;91.94;102623.41;5038322;28;20203;-81
2023/02/14 01:28:50;;;;;;;11.30;10.20;;;;;;;3.32;91.55;102639.06;5038219;28;20206;-80
2023/02/14 01:31:19;;;;;;;11.27;10.17;;;;;;;3.33;91.75;102642.53;5037941;28;20280;-82
2023/02/14 01:33:47;;;;;;;11.63;10.30;;;;;;;3.32;91.80;102645.94;5037204;28;20261;-82
2023/02/14 01:36:20;;;;;;;11.27;10.23;;;;;;;3.26;91.91;102648.25;5037583;28;20198;-80
2023/02/14 01:38:46;;;;;;;11.07;9.97;;;;;;;3.25;91.62;102649.03;5037506;28;20229;-82
2023/02/14 01:41:14;;;;;;;10.50;9.40;;;;;;;3.15;91.68;102656.38;5037529;28;20215;-82
2023/02/14 01:43:51;;;;;;;10.97;9.87;;;;;;;3.22;91.35;102656.66;5037180;28;20218;-82
2023/02/14 01:46:18;;;;;;;11.97;10.47;;;;;;;3.23;91.78;102648.09;5037584;28;20750;-82
2023/02/14 01:48:45;;;;;;;11.63;10.43;;;;;;;3.23;91.96;102637.75;5037540;28;20210;-82
2023/02/14 01:51:12;;;;;;;11.30;10.20;;;;;;;3.25;92.07;102636.13;5037222;28;20782;-81
2023/02/14 01:53:39;;;;;;;10.50;9.50;;;;;;;3.22;91.82;102641.16;5036888;28;20650;-82
2023/02/14 01:56:09;;;;;;;10.77;9.67;;;;;;;3.20;91.95;102637.63;5036893;28;20208;-80
2023/02/14 01:58:39;;;;;;;11.40;10.30;;;;;;;3.17;92.04;102644.41;5037564;28;20237;-80
2023/02/14 02:01:06;;;;;;;11.57;10.37;;;;;;;3.23;92.31;102627.44;5037413;28;20211;-80
2023/02/14 02:03:37;;;;;;;11.47;10.27;;;;;;;3.22;92.58;102620.53;5036682;28;20234;-82
2023/02/14 02:06:11;;;;;;;11.87;10.10;;;;;;;3.15;93.59;102602.19;5037623;28;20215;-81
2023/02/14 02:08:43;;;;;;;11.60;10.40;;;;;;;3.21;93.73;102583.50;5037192;28;20341;-81
2023/02/14 02:11:09;;;;;;;10.77;9.63;;;;;;;3.26;93.66;102582.00;5036910;28;20202;-82
2023/02/14 02:13:37;;;;;;;12.17;10.90;;;;;;;3.21;93.75;102577.44;5036321;28;20229;-81
2023/02/14 02:16:18;;;;;;;11.87;10.30;;;;;;;3.23;93.96;102560.34;5028696;28;20225;-82
2023/02/14 02:18:58;;;;;;;13.67;10.67;;;;;;;3.21;94.32;102546.47;5037013;28;20215;-79
2023/02/14 02:21:46;;;;;;;12.00;10.83;;;;;;;3.23;94.45;102540.59;5037228;28;20202;-82
2023/02/14 02:24:24;;;;;;;11.07;10.03;;;;;;;3.18;94.64;102532.63;5036797;28;20222;-81
2023/02/14 02:27:18;;;;;;;11.80;9.73;;;;;;;3.21;94.48;102541.31;5040665;28;20205;-80
2023/02/14 02:30:18;;;;;;;11.70;10.57;;;;;;;3.12;93.88;102536.63;5040873;28;20202;-80
2023/02/14 02:33:11;;;;;;;11.97;10.77;;;;;;;3.07;94.76;102520.06;5039846;28;20226;-80
2023/02/14 02:35:52;;;;;;;9.90;8.87;;;;;;;3.10;94.70;102522.78;5040827;28;20256;-80
2023/02/14 02:38:31;;;;;;;10.33;9.37;;;;;;;3.05;94.08;102519.09;5040059;28;20258;-80
2023/02/14 02:41:03;;;;;;;11.40;10.30;;;;;;;3.04;93.91;102513.06;5040564;28;20261;-82
2023/02/14 02:43:38;;;;;;;10.33;9.43;;;;;;;3.00;92.97;102530.94;5039357;28;20783;-80
2023/02/14 02:49:01;;;;;;;9.73;8.83;;;;;;;2.73;92.32;102570.06;5039986;28;20204;-80
2023/02/14 02:54:29;;;;;;;10.97;9.97;;;;;;;2.34;92.39;102583.69;5040946;28;20292;-81
2023/02/14 02:57:00;;;;;;;29.57;9.00;;;;;;;1.14;93.56;102589.47;5040121;28;20747;-81
2023/02/14 02:59:30;;;;;;;27.73;10.07;;;;;;;1.21;95.64;102537.56;5040667;28;20210;-81
2023/02/14 03:02:04;;;;;;;54.63;10.73;;;;;;;0.73;97.04;102488.75;5040019;28;20210;-81
2023/02/14 03:07:38;;;;;;;27.43;9.07;;;;;;;0.47;99.69;102406.75;5039585;28;20252;-82
2023/02/14 03:10:08;;;;;;;11.83;9.93;;;;;;;0.54;100.00;102366.06;5039307;28;20210;-82
2023/02/14 03:12:51;;;;;;;22.53;9.73;;;;;;;0.74;100.00;102351.69;5038790;28;20245;-83
2023/02/14 03:15:25;;;;;;;21.67;10.43;;;;;;;0.83;100.00;102345.25;5039313;28;20212;-81
2023/02/14 03:18:01;;;;;;;9.93;9.03;;;;;;;0.94;100.00;102347.59;5039777;28;20210;-80
2023/02/14 03:20:42;;;;;;;27.57;11.00;;;;;;;1.08;100.00;102340.56;5039729;28;20194;-82
2023/02/14 03:23:20;;;;;;;9.03;8.23;;;;;;;1.23;100.00;102361.03;5038891;28;20250;-82
2023/02/14 03:25:58;;;;;;;18.57;8.43;;;;;;;1.36;99.52;102368.56;5039136;28;20206;-80
2023/02/14 03:28:33;;;;;;;9.10;8.30;;;;;;;1.48;98.49;102381.13;5038947;28;20210;-82
2023/02/14 03:31:05;;;;;;;8.47;7.67;;;;;;;1.52;97.00;102405.34;5039100;28;20232;-82
2023/02/14 03:33:40;;;;;;;7.50;6.90;;;;;;;1.40;95.96;102433.91;5039137;28;20226;-82
2023/02/14 03:36:10;;;;;;;7.60;7.00;;;;;;;1.21;95.61;102452.69;5038761;28;20622;-81
2023/02/14 03:38:44;;;;;;;16.80;7.73;;;;;;;1.09;96.61;102446.88;5038489;28;20206;-81
2023/02/14 03:41:14;;;;;;;9.70;7.30;;;;;;;1.20;96.09;102435.47;5038896;28;20234;-79
2023/02/14 03:43:45;;;;;;;8.10;7.40;;;;;;;1.33;96.14;102431.84;5038555;28;20222;-81
2023/02/14 03:46:17;;;;;;;7.80;7.10;;;;;;;1.41;96.41;102433.13;5039319;28;20210;-82
2023/02/14 03:48:46;;;;;;;8.33;7.53;;;;;;;1.57;95.03;102439.94;5039155;28;20210;-82
2023/02/14 03:51:14;;;;;;;7.13;6.53;;;;;;;1.65;94.67;102454.06;5039235;28;20205;-81
2023/02/14 03:53:46;;;;;;;6.90;6.30;;;;;;;1.65;94.12;102472.06;5038113;28;20227;-81
2023/02/14 03:56:17;;;;;;;6.23;5.73;;;;;;;1.64;93.74;102484.88;5038812;28;20714;-82
2023/02/14 03:58:47;;;;;;;6.70;6.10;;;;;;;1.63;93.24;102503.72;5039099;28;20207;-82
2023/02/14 04:01:20;;;;;;;6.67;6.17;;;;;;;1.62;93.01;102515.66;5039600;28;20236;-82
2023/02/14 04:03:48;;;;;;;6.63;6.03;;;;;;;1.70;92.65;102519.50;5038526;28;20230;-81
2023/02/14 04:06:17;;;;;;;6.70;6.20;;;;;;;1.78;92.71;102515.66;5038955;28;20764;-82
2023/02/14 04:08:45;;;;;;;6.93;6.30;;;;;;;1.82;nan;102515.81;5038732;28;20202;-81
2023/02/14 04:11:11;;;;;;;10.43;6.63;;;;;;;1.37;94.25;102534.13;5037826;28;20256;-81
2023/02/14 04:13:38;;;;;;;9.13;6.93;;;;;;;1.34;94.49;102491.09;5037748;28;20230;-81
2023/02/14 04:16:06;;;;;;;7.37;6.77;;;;;;;1.49;95.45;102479.84;5030200;28;20210;-80
2023/02/14 04:21:19;;;;;;;6.53;6.03;;;;;;;1.59;94.72;102477.78;5028103;28;20209;-81
2023/02/14 04:23:46;;;;;;;7.27;6.57;;;;;;;1.59;93.71;102489.78;5038048;28;20244;-80
2023/02/14 04:26:13;;;;;;;6.43;5.87;;;;;;;1.59;92.93;102503.53;5037882;28;20210;-81
2023/02/14 04:28:39;;;;;;;6.30;5.80;;;;;;;1.70;92.87;102513.50;5037739;28;20210;-80
2023/02/14 04:31:06;;;;;;;7.87;7.17;;;;;;;1.67;92.48;102524.53;5037707;28;20699;-81
2023/02/14 04:33:33;;;;;;;33.13;8.40;;;;;;;1.69;92.40;102530.63;5037818;28;20230;-80
2023/02/14 04:36:00;;;;;;;8.77;7.97;;;;;;;1.51;91.87;102535.72;5037921;28;20257;-81
2023/02/14 04:38:26;;;;;;;22.70;9.27;;;;;;;1.49;92.07;102541.59;5037890;28;20202;-81
2023/02/14 04:40:54;;;;;;;9.93;9.03;;;;;;;1.52;92.58;102532.31;5038028;28;20206;-81
2023/02/14 04:43:20;;;;;;;10.33;9.30;;;;;;;1.64;92.39;102529.50;5037324;28;20257;-81
2023/02/14 04:45:47;;;;;;;9.90;9.00;;;;;;;1.56;93.35;102525.66;5037356;28;20256;-80
2023/02/14 04:48:13;;;;;;;10.80;9.80;;;;;;;1.55;92.83;102519.63;5037449;28;20206;-80
2023/02/14 04:50:39;;;;;;;9.20;8.40;;;;;;;1.50;93.55;102513.34;5037526;28;20202;-80
2023/02/14 04:53:06;;;;;;;13.60;8.53;;;;;;;1.49;93.83;102509.03;5037192;28;20230;-81
2023/02/14 04:55:32;;;;;;;17.60;8.77;;;;;;;1.51;94.35;102494.53;5037069;28;20240;-81
2023/02/14 04:58:00;;;;;;;20.97;9.43;;;;;;;1.52;94.05;102486.00;5037485;28;20268;-81
2023/02/14 05:00:26;;;;;;;10.93;7.60;;;;;;;1.46;94.44;102477.97;5037082;28;20269;-80
2023/02/14 05:02:53;;;;;;;7.60;6.97;;;;;;;1.44;94.98;102478.72;5037331;28;20658;-82
2023/02/14 05:05:19;;;;;;;7.80;7.20;;;;;;;1.37;93.83;102478.41;5036923;28;20214;-81
2023/02/14 05:07:46;;;;;;;8.23;7.53;;;;;;;1.39;93.94;102488.78;5037185;28;20210;-81
2023/02/14 05:10:13;;;;;;;6.60;6.00;;;;;;;1.39;93.09;102494.78;5036436;28;20202;-80
2023/02/14 05:12:40;;;;;;;6.77;6.17;;;;;;;1.33;92.53;102503.91;5036551;28;20222;-78
2023/02/14 05:15:08;;;;;;;6.50;5.90;;;;;;;1.31;92.63;102511.53;5036082;28;20221;-80
2023/02/14 05:17:36;;;;;;;7.47;6.77;;;;;;;1.33;92.20;102520.22;5035861;28;20736;-81
2023/02/14 05:20:03;;;;;;;7.50;6.80;;;;;;;1.35;92.19;102534.03;5036630;28;20597;-81
2023/02/14 05:22:29;;;;;;;7.40;6.70;;;;;;;1.37;91.64;102540.16;5035568;28;20241;-81
2023/02/14 05:24:56;;;;;;;6.93;6.33;;;;;;;1.33;91.94;102533.06;5035866;28;20252;-80
2023/02/14 05:27:22;;;;;;;7.63;6.93;;;;;;;1.38;91.79;102530.72;5036863;28;20210;-80
2023/02/14 05:29:48;;;;;;;7.80;7.10;;;;;;;1.43;91.98;102525.81;5037628;28;20264;-81
2023/02/14 05:32:16;;;;;;;7.63;6.63;;;;;;;1.36;91.74;102530.63;5036835;28;20210;-81
2023/02/14 05:34:42;;;;;;;8.53;7.73;;;;;;;1.35;92.13;102536.59;5037210;28;20277;-81
2023/02/14 05:37:09;;;;;;;9.10;7.20;;;;;;;1.38;92.11;102539.31;5037586;28;20263;-80
2023/02/14 05:39:35;;;;;;;7.10;6.40;;;;;;;1.33;91.63;102548.50;5037055;28;20926;-81
2023/02/14 05:42:02;;;;;;;7.77;7.07;;;;;;;1.28;91.45;102538.78;5036568;28;20712;-81
2023/02/14 05:44:28;;;;;;;6.83;6.23;;;;;;;1.25;91.91;102534.38;5037532;28;20229;-81
2023/02/14 05:46:54;;;;;;;6.77;6.17;;;;;;;1.25;91.70;102539.50;5037478;28;20202;-81
2023/02/14 05:49:22;;;;;;;6.70;6.13;;;;;;;1.24;91.41;102548.00;5036921;28;20210;-82
2023/02/14 05:51:49;;;;;;;6.93;6.33;;;;;;;1.27;91.94;102549.84;5036968;28;20229;-80
2023/02/14 05:54:16;;;;;;;7.27;6.60;;;;;;;1.32;91.70;102545.84;5036388;28;20696;-81
2023/02/14 05:56:43;;;;;;;7.70;7.00;;;;;;;1.31;91.81;102550.13;5037025;28;20214;-81
2023/02/14 05:59:09;;;;;;;7.10;6.40;;;;;;;1.27;91.60;102555.00;5036472;28;20284;-81
2023/02/14 06:01:35;;;;;;;7.03;6.43;;;;;;;1.27;90.97;102550.75;5039317;28;20205;-79
2023/02/14 06:04:02;;;;;;;5.93;5.43;;;;;;;1.33;91.13;102558.81;5040238;28;20286;-80
2023/02/14 06:06:29;;;;;;;6.17;5.67;;;;;;;1.26;90.92;102554.13;5040126;28;20240;-79
2023/02/14 06:08:56;;;;;;;5.77;5.27;;;;;;;1.27;90.75;102560.16;5040812;28;20213;-80
2023/02/14 06:11:22;;;;;;;5.93;5.43;;;;;;;1.28;90.89;102564.50;5040792;28;20233;-81
2023/02/14 06:13:48;;;;;;;6.17;5.60;;;;;;;1.29;91.13;102573.97;5040652;28;20230;-78
2023/02/14 06:16:15;;;;;;;6.00;5.50;;;;;;;1.23;90.89;102577.13;5039811;28;20206;-79
2023/02/14 06:18:41;;;;;;;6.83;6.23;;;;;;;1.17;90.90;102582.81;5040714;28;20210;-81
2023/02/14 06:21:07;;;;;;;6.10;5.60;;;;;;;1.15;91.23;102575.81;5039977;28;20210;-81
2023/02/14 06:23:35;;;;;;;6.97;6.37;;;;;;;1.26;90.93;102571.25;5039753;28;20230;-81
2023/02/14 06:26:02;;;;;;;8.43;5.83;;;;;;;0.88;89.91;102585.47;5040390;28;20783;-81
2023/02/14 06:28:28;;;;;;;11.07;7.37;;;;;;;0.39;91.70;102573.31;5040616;28;20212;-81
2023/02/14 06:30:56;;;;;;;9.90;7.27;;;;;;;0.17;93.47;102542.97;5039729;28;20202;-81
2023/02/14 06:33:22;;;;;;;36.47;8.40;;;;;;;-0.09;95.60;102495.25;5039768;28;20233;-81
2023/02/14 06:35:48;;;;;;;9.17;6.60;;;;;;;-0.05;97.42;102443.28;5040420;28;20202;-81
2023/02/14 06:38:15;;;;;;;7.03;6.43;;;;;;;-0.07;97.92;102398.69;5040043;28;20213;-81
2023/02/14 06:40:42;;;;;;;13.03;6.20;;;;;;;0.06;98.56;102377.13;5039575;28;20230;-82
2023/02/14 06:43:09;;;;;;;6.13;5.63;;;;;;;0.20;98.34;102360.81;5039438;28;20230;-81
2023/02/14 06:45:35;;;;;;;5.37;4.87;;;;;;;0.30;98.18;102355.38;5038958;28;20757;-80
2023/02/14 06:48:02;;;;;;;6.43;5.57;;;;;;;0.50;98.32;102351.28;5039609;28;20203;-81
2023/02/14 06:50:29;;;;;;;5.37;4.87;;;;;;;0.65;97.15;102365.75;5038818;28;20217;-79
2023/02/14 06:52:55;;;;;;;5.40;4.90;;;;;;;0.62;96.66;102388.72;5039241;28;20787;-81
2023/02/14 06:55:21;;;;;;;5.83;5.33;;;;;;;0.62;96.49;102388.72;5039271;28;20584;-81
2023/02/14 06:57:49;;;;;;;6.30;5.80;;;;;;;0.67;96.08;102411.28;5027374;28;20203;-84
2023/02/14 07:00:16;;;;;;;6.03;5.53;;;;;;;0.71;95.45;102420.03;5016914;28;20261;-83
2023/02/14 07:02:42;;;;;;;6.57;5.93;;;;;;;0.65;95.58;102428.31;5017485;28;20289;-82
2023/02/14 07:05:09;;;;;;;6.27;5.70;;;;;;;0.81;95.54;102430.00;5018263;28;20208;-84
2023/02/14 07:07:35;;;;;;;6.37;5.87;;;;;;;0.96;95.43;102424.81;5017654;28;20229;-83
2023/02/14 07:10:02;;;;;;;6.07;5.57;;;;;;;1.08;95.13;102438.28;5017533;28;20740;-84
2023/02/14 07:12:28;;;;;;;5.50;5.10;;;;;;;1.21;94.16;102454.34;5016787;28;20203;-82
2023/02/14 07:14:56;;;;;;;6.20;5.70;;;;;;;1.24;93.59;102475.97;5023023;28;20227;-84
2023/02/14 07:17:22;;;;;;;6.63;6.03;;;;;;;1.30;93.97;102483.13;5036766;28;20217;-84
2023/02/14 07:19:49;;;;;;;6.77;6.17;;;;;;;1.36;93.39;102504.91;5037175;28;20260;-83
2023/02/14 07:22:15;;;;;;;7.37;6.67;;;;;;;1.39;92.85;102506.78;5036066;28;20214;-84
2023/02/14 07:24:41;;;;;;;7.03;6.43;;;;;;;1.40;93.10;102511.09;5036490;28;20206;-82
2023/02/14 07:27:08;;;;;;;7.00;6.10;;;;;;;1.44;93.15;102513.03;5037301;28;20206;-82
2023/02/14 07:29:34;;;;;;;8.10;7.40;;;;;;;1.48;93.34;102509.81;5037179;28;20746;-81
2023/02/14 07:32:02;;;;;;;8.20;7.27;;;;;;;1.53;92.65;102517.78;5037020;28;20210;-84
2023/02/14 07:34:28;;;;;;;15.80;7.40;;;;;;;1.63;92.85;102519.16;5037377;28;20234;-83
2023/02/14 07:36:55;;;;;;;9.17;8.27;;;;;;;1.59;93.18;102516.41;5036657;28;20240;-81
2023/02/14 07:39:21;;;;;;;8.93;8.07;;;;;;;1.55;93.92;102511.03;5036945;28;20206;-81
2023/02/14 07:41:48;;;;;;;8.93;8.13;;;;;;;1.64;93.62;102488.31;5036759;28;20233;-80
2023/02/14 07:44:14;;;;;;;11.47;8.23;;;;;;;1.77;93.83;102488.13;5037138;28;20223;-81
2023/02/14 07:46:40;;;;;;;9.50;8.60;;;;;;;1.80;93.78;102489.97;5037120;28;20236;-82
2023/02/14 07:49:08;;;;;;;9.77;8.77;;;;;;;1.79;94.57;102480.50;5037024;28;20206;-83
2023/02/14 07:51:34;;;;;;;10.27;9.27;;;;;;;1.75;94.87;102470.84;5037444;28;20207;-82
2023/02/14 07:54:01;;;;;;;9.80;8.90;;;;;;;1.76;94.94;102462.31;5038280;28;20228;-81
2023/02/14 07:56:27;;;;;;;10.43;9.33;;;;;;;1.81;96.14;102441.97;5038433;28;20634;-82
2023/02/14 07:58:54;;;;;;;9.27;8.37;;;;;;;1.77;96.93;102418.63;5037113;28;20265;-81
2023/02/14 08:01:20;;;;;;;9.57;8.67;;;;;;;1.70;97.48;102406.25;5037353;28;20206;-81
2023/02/14 08:03:48;;;;;;;11.07;9.70;;;;;;;1.69;97.27;102396.78;5037262;28;20618;-83
2023/02/14 08:06:16;;;;;;;10.77;9.67;;;;;;;1.62;98.53;102368.94;5037407;28;20206;-82
2023/02/14 08:08:43;;;;;;;11.33;10.23;;;;;;;1.53;100.00;102338.50;5036865;28;20203;-79
2023/02/14 08:11:09;;;;;;;14.87;13.47;;;;;;;1.54;100.00;102304.25;5037838;28;20214;-82
2023/02/14 08:13:35;;;;;;;11.57;10.47;;;;;;;1.52;100.00;102285.25;5037218;28;20251;-82
2023/02/14 08:16:04;;;;;;;11.53;10.10;;;;;;;1.50;100.00;102274.00;5036916;28;20285;-84
2023/02/14 08:18:32;;;;;;;11.90;10.70;;;;;;;1.32;100.00;102262.84;5052209;28;20584;-82
2023/02/14 08:20:59;;;;;;;11.43;10.23;;;;;;;1.34;100.00;102246.69;5056797;28;20684;-82
2023/02/14 08:23:27;;;;;;;11.67;10.57;;;;;;;1.27;100.00;102239.50;5055693;28;20233;-84
2023/02/14 08:25:53;;;;;;;12.30;10.83;;;;;;;1.25;100.00;102232.47;5057863;28;20209;-82
2023/02/14 08:28:20;;;;;;;13.00;10.47;;;;;;;1.42;100.00;102231.59;5056469;28;20236;-82
2023/02/14 08:30:47;;;;;;;11.17;10.07;;;;;;;1.52;100.00;102227.78;5056271;28;20644;-83
2023/02/14 08:33:13;;;;;;;10.67;9.57;;;;;;;1.55;100.00;102223.66;5055275;28;20312;-82
2023/02/14 08:35:40;;;;;;;11.77;10.67;;;;;;;1.58;100.00;102226.34;5056146;28;20221;-83
2023/02/14 08:38:07;;;;;;;12.43;10.40;;;;;;;1.65;100.00;102235.28;5055212;28;20707;-83
2023/02/14 08:40:35;;;;;;;11.63;10.53;;;;;;;1.76;100.00;102235.75;5056081;28;20224;-82
2023/02/14 08:43:02;;;;;;;23.60;20.37;;;;;;;1.72;100.00;102221.84;5055137;28;20225;-82
2023/02/14 08:45:28;;;;;;;12.03;10.83;;;;;;;1.76;100.00;102217.72;5038996;28;20202;-82
2023/02/14 08:47:55;;;;;;;10.23;9.23;;;;;;;1.83;100.00;102227.50;5035870;28;20601;-82
2023/02/14 08:50:21;;;;;;;11.90;10.77;;;;;;;1.88;100.00;102223.44;5035279;28;20210;-84
2023/02/14 08:52:48;;;;;;;13.10;11.17;;;;;;;1.85;100.00;102225.88;5034504;28;20582;-82
2023/02/14 08:55:14;;;;;;;12.60;10.67;;;;;;;1.92;100.00;102221.88;5035299;28;20638;-82
2023/02/14 08:57:42;;;;;;;13.50;12.10;;;;;;;1.99;100.00;102217.09;5036180;28;20217;-82
2023/02/14 09:00:09;;;;;;;12.63;10.90;;;;;;;2.00;100.00;102217.94;5036397;28;20264;-82
2023/02/14 09:02:39;;;;;;;13.90;12.50;;;;;;;1.92;100.00;102220.22;5034628;28;20641;-83
2023/02/14 09:05:08;;;;;;;12.43;11.13;;;;;;;2.03;100.00;102215.53;5034919;28;20256;-83
2023/02/14 09:07:35;;;;;;;13.57;11.70;;;;;;;2.13;100.00;102214.25;5035132;28;20289;-82
2023/02/14 09:10:01;;;;;;;12.97;11.67;;;;;;;2.17;100.00;102206.72;5035359;28;20236;-80
2023/02/14 09:12:28;;;;;;;19.80;12.80;;;;;;;2.20;100.00;102200.84;5034872;28;20676;-83
2023/02/14 09:14:55;;;;;;;14.87;12.80;;;;;;;2.27;100.00;102182.22;5034397;28;20234;-82
2023/02/14 09:17:22;;;;;;;16.80;14.97;;;;;;;2.42;100.00;102178.53;5035027;28;20233;-82
2023/02/14 09:19:48;;;;;;;18.03;15.90;;;;;;;2.53;100.00;102169.56;5034525;28;20206;-81
2023/02/14 09:22:14;;;;;;;19.77;15.83;;;;;;;2.57;100.00;102164.59;5035036;28;20240;-81
2023/02/14 09:24:41;;;;;;;16.90;15.10;;;;;;;2.72;100.00;102161.78;5035441;28;20256;-83
2023/02/14 09:27:08;;;;;;;21.67;15.73;;;;;;;2.83;100.00;102161.34;5035443;28;20205;-84
2023/02/14 09:29:34;;;;;;;26.77;19.80;;;;;;;2.94;100.00;102162.66;5036969;28;20292;-83
2023/02/14 09:32:03;;;;;;;19.63;17.60;;;;;;;3.02;100.00;102153.53;5035374;28;20586;-82
2023/02/14 09:37:14;;;;;;;24.70;17.87;;;;;;;3.24;100.00;102152.66;5035267;28;20221;-83
2023/02/14 09:39:41;;;;;;;25.13;17.20;;;;;;;3.32;100.00;102152.97;5035359;28;20677;-84
2023/02/14 09:42:21;;;;;;;22.53;16.37;;;;;;;3.46;100.00;102154.38;5032279;28;20211;-82
2023/02/14 09:44:50;;;;;;;23.80;17.43;;;;;;;3.56;100.00;102160.75;5034066;28;20210;-83
2023/02/14 09:47:27;;;;;;;31.33;20.53;;;;;;;3.69;100.00;102156.94;5038384;28;20212;-83
2023/02/14 09:49:54;;;;;;;28.80;19.40;;;;;;;3.86;100.00;102153.25;5041190;28;20744;-83
2023/02/14 09:52:26;;;;;;;26.37;20.10;;;;;;;4.01;100.00;102160.69;5023582;28;20205;-83
2023/02/14 09:54:56;;;;;;;21.40;17.90;;;;;;;4.14;100.00;102165.47;5020965;28;20224;-81
2023/02/14 09:57:31;;;;;;;20.57;16.33;;;;;;;4.30;100.00;102172.06;5025348;28;20663;-85
2023/02/14 10:00:06;;;;;;;21.20;15.97;;;;;;;4.37;100.00;102181.78;5024590;28;20204;-84
2023/02/14 10:02:43;;;;;;;17.10;15.30;;;;;;;4.51;100.00;102183.97;5025167;28;20201;-83
2023/02/14 10:05:14;;;;;;;15.87;14.17;;;;;;;4.68;100.00;102185.41;5026542;28;20620;-83
2023/02/14 10:07:55;;;;;;;15.87;14.33;;;;;;;4.77;100.00;102201.22;5025408;28;20673;-83
2023/02/14 10:10:27;;;;;;;16.70;15.10;;;;;;;4.81;100.00;102211.69;5025982;28;20204;-83
2023/02/14 10:12:56;;;;;;;16.60;14.90;;;;;;;4.90;100.00;102218.03;5023542;28;20213;-84
2023/02/14 10:15:26;;;;;;;16.80;13.50;;;;;;;5.03;100.00;102227.06;5026606;28;20229;-83
2023/02/14 10:18:00;;;;;;;15.40;13.80;;;;;;;5.15;100.00;102244.72;5028850;28;20248;-83
2023/02/14 10:20:31;;;;;;;14.67;13.17;;;;;;;5.31;100.00;102266.81;5024932;28;20209;-83
2023/02/14 10:23:04;;;;;;;14.07;12.47;;;;;;;5.41;100.00;102279.25;5022877;28;20264;-84
2023/02/14 10:25:37;;;;;;;11.93;10.83;;;;;;;5.49;100.00;102305.34;5022885;28;20198;-82
2023/02/14 10:28:04;;;;;;;12.87;11.57;;;;;;;5.61;100.00;102326.50;5023558;28;20238;-82
2023/02/14 10:30:38;;;;;;;12.07;10.97;;;;;;;5.74;100.00;102336.38;5024421;28;20199;-80
2023/02/14 10:33:13;;;;;;;13.27;11.97;;;;;;;5.85;100.00;102352.28;5025097;28;20636;-81
2023/02/14 10:35:46;;;;;;;11.67;10.67;;;;;;;6.02;100.00;102367.50;5024659;28;20226;-82
2023/02/14 10:38:31;;;;;;;12.60;11.50;;;;;;;6.08;100.00;102383.25;5023790;28;20210;-82
2023/02/14 10:41:15;;;;;;;11.17;10.17;;;;;;;6.24;100.00;102414.00;5023779;28;20622;-84
2023/02/14 10:43:53;;;;;;;10.90;9.80;;;;;;;6.40;100.00;102443.00;5023723;28;20221;-82
2023/02/14 10:46:31;;;;;;;11.47;10.40;;;;;;;6.53;99.13;102459.00;5024319;28;20206;-81
2023/02/14 10:49:08;;;;;;;11.30;10.30;;;;;;;6.60;97.85;102475.66;5026462;28;20210;-83
2023/02/14 10:51:40;;;;;;;11.40;10.30;;;;;;;6.66;98.18;102490.50;5025545;28;20201;-81
2023/02/14 10:54:50;;;;;;;10.77;9.87;;;;;;;6.77;98.22;102486.53;5025247;28;20777;-83
2023/02/14 10:57:57;;;;;;;11.23;10.23;;;;;;;6.79;99.44;102468.41;5026774;28;20216;-84
2023/02/14 11:03:53;;;;;;;11.40;9.63;;;;;;;6.88;100.00;102432.34;5002152;22;20733;-80
2023/02/14 11:06:21;;;;;;;10.70;9.70;;;;;;;6.94;100.00;102394.44;5028039;28;20214;-81
2023/02/14 11:08:47;;;;;;;11.13;10.23;;;;;;;7.06;100.00;102404.28;5022363;28;20310;-80
2023/02/14 11:11:20;;;;;;;10.87;9.90;;;;;;;7.19;99.72;102427.97;5016138;28;20576;-79
2023/02/14 11:13:47;;;;;;;9.77;8.87;;;;;;;7.35;98.65;102448.31;5015989;28;20198;-79
2023/02/14 11:16:28;;;;;;;11.00;9.90;;;;;;;7.43;96.81;102482.31;5013277;28;20330;-79
2023/02/14 11:19:09;;;;;;;9.20;8.30;;;;;;;7.49;96.19;102480.78;5014223;28;20258;-79
2023/02/14 11:21:39;;;;;;;9.03;8.23;;;;;;;7.65;94.60;102515.84;5016572;28;20313;-80
2023/02/14 11:24:17;;;;;;;8.47;7.77;;;;;;;7.75;93.52;102528.25;5016230;28;20221;-78
2023/02/14 11:26:47;;;;;;;9.83;8.93;;;;;;;7.88;96.81;102511.22;5017156;28;20241;-79
2023/02/14 11:29:16;;;;;;;10.17;9.37;;;;;;;7.95;97.63;102474.16;5016361;28;20314;-80
2023/02/14 11:31:43;;;;;;;9.77;8.97;;;;;;;8.01;96.07;102485.53;5018202;28;20209;-81
2023/02/14 11:34:27;;;;;;;10.63;9.57;;;;;;;8.02;95.06;102508.09;5018482;28;20256;-81
2023/02/14 11:36:55;;;;;;;9.53;8.73;;;;;;;8.06;93.91;102529.03;5018154;28;20234;-81
2023/02/14 11:39:29;;;;;;;10.13;9.27;;;;;;;8.07;93.11;102549.00;5018023;28;20230;-81
2023/02/14 11:41:57;;;;;;;9.73;8.83;;;;;;;8.12;92.94;102552.56;5017041;28;20293;-80
2023/02/14 11:44:26;;;;;;;10.00;9.20;;;;;;;8.04;92.71;102564.50;5014452;28;20206;-81
2023/02/14 11:46:54;;;;;;;9.53;8.63;;;;;;;8.26;91.16;102584.16;5013079;28;20587;-81
2023/02/14 11:49:30;;;;;;;9.93;9.03;;;;;;;8.52;91.37;102592.66;5015095;28;20231;-81
2023/02/14 11:52:00;;;;;;;10.20;9.37;;;;;;;8.70;90.75;102592.22;5015068;28;20267;-82